sensor_id;sensor_type;location;lat;lon;timestamp;P1;durP1;ratioP1;P2;durP2;ratioP2
12956;SDS011;6543;48.836;10.092;2023-01-15T00:01:56;1.80;;;0.50;;
12956;SDS011;6543;48.836;10.092;2023-01-15T00:04:23;0.43;;;0.40;;
12956;SDS011;6543;48.836;10.092;2023-01-15T00:06:50;0.50;;;0.40;;
12956;SDS011;6543;48.836;10.092;2023-01-15T00:09:18;0.37;;;0.30;;
12956;SDS011;6543;48.836;10.092;2023-01-15T00:11:45;0.50;;;0.50;;
12956;SDS011;6543;48.836;10.092;2023-01-15T00:14:12;0.30;;;0.23;;
12956;SDS011;6543;48.836;10.092;2023-01-15T00:16:40;0.97;;;0.50;;
12956;SDS011;6543;48.836;10.092;2023-01-15T00:19:09;0.50;;;0.40;;
12956;SDS011;6543;48.836;10.092;2023-01-15T00:21:36;0.70;;;0.30;;
12956;SDS011;6543;48.836;10.092;2023-01-15T00:24:04;0.27;;;0.20;;
12956;SDS011;6543;48.836;10.092;2023-01-15T00:26:48;4.20;;;2.70;;
12956;SDS011;6543;48.836;10.092;2023-01-15T00:29:32;5.57;;;3.53;;
12956;SDS011;6543;48.836;10.092;2023-01-15T00:32:01;6.77;;;5.03;;
12956;SDS011;6543;48.836;10.092;2023-01-15T00:34:30;1.13;;;1.03;;
12956;SDS011;6543;48.836;10.092;2023-01-15T00:36:58;0.70;;;0.70;;
12956;SDS011;6543;48.836;10.092;2023-01-15T00:39:25;0.60;;;0.53;;
12956;SDS011;6543;48.836;10.092;2023-01-15T00:41:52;0.77;;;0.47;;
12956;SDS011;6543;48.836;10.092;2023-01-15T00:44:20;0.30;;;0.20;;
12956;SDS011;6543;48.836;10.092;2023-01-15T00:46:47;0.20;;;0.20;;
12956;SDS011;6543;48.836;10.092;2023-01-15T00:49:16;0.20;;;0.20;;
12956;SDS011;6543;48.836;10.092;2023-01-15T00:51:43;0.10;;;0.10;;
12956;SDS011;6543;48.836;10.092;2023-01-15T00:54:10;0.20;;;0.20;;
12956;SDS011;6543;48.836;10.092;2023-01-15T00:56:36;0.20;;;0.20;;
12956;SDS011;6543;48.836;10.092;2023-01-15T00:59:03;0.77;;;0.27;;
12956;SDS011;6543;48.836;10.092;2023-01-15T01:01:30;0.20;;;0.20;;
12956;SDS011;6543;48.836;10.092;2023-01-15T01:03:58;0.10;;;0.10;;
12956;SDS011;6543;48.836;10.092;2023-01-15T01:06:26;0.77;;;0.20;;
12956;SDS011;6543;48.836;10.092;2023-01-15T01:08:53;0.33;;;0.27;;
12956;SDS011;6543;48.836;10.092;2023-01-15T01:11:21;1.80;;;0.20;;
12956;SDS011;6543;48.836;10.092;2023-01-15T01:13:51;0.20;;;0.20;;
12956;SDS011;6543;48.836;10.092;2023-01-15T01:16:26;0.20;;;0.20;;
12956;SDS011;6543;48.836;10.092;2023-01-15T01:18:56;0.17;;;0.10;;
12956;SDS011;6543;48.836;10.092;2023-01-15T01:21:25;0.33;;;0.30;;
12956;SDS011;6543;48.836;10.092;2023-01-15T01:23:52;0.20;;;0.20;;
12956;SDS011;6543;48.836;10.092;2023-01-15T01:26:19;0.43;;;0.27;;
12956;SDS011;6543;48.836;10.092;2023-01-15T01:28:49;0.20;;;0.20;;
12956;SDS011;6543;48.836;10.092;2023-01-15T01:31:17;1.37;;;0.23;;
12956;SDS011;6543;48.836;10.092;2023-01-15T01:33:46;0.30;;;0.17;;
12956;SDS011;6543;48.836;10.092;2023-01-15T01:36:14;0.20;;;0.20;;
12956;SDS011;6543;48.836;10.092;2023-01-15T01:38:42;0.47;;;0.47;;
12956;SDS011;6543;48.836;10.092;2023-01-15T01:41:09;0.80;;;0.20;;
12956;SDS011;6543;48.836;10.092;2023-01-15T01:43:50;0.23;;;0.20;;
12956;SDS011;6543;48.836;10.092;2023-01-15T01:46:19;0.37;;;0.30;;
12956;SDS011;6543;48.836;10.092;2023-01-15T01:48:46;1.57;;;0.30;;
12956;SDS011;6543;48.836;10.092;2023-01-15T01:51:15;0.40;;;0.23;;
12956;SDS011;6543;48.836;10.092;2023-01-15T01:53:46;0.63;;;0.10;;
12956;SDS011;6543;48.836;10.092;2023-01-15T01:56:13;0.13;;;0.13;;
12956;SDS011;6543;48.836;10.092;2023-01-15T01:58:42;0.47;;;0.10;;
12956;SDS011;6543;48.836;10.092;2023-01-15T02:01:10;0.50;;;0.20;;
12956;SDS011;6543;48.836;10.092;2023-01-15T02:03:37;1.60;;;0.20;;
12956;SDS011;6543;48.836;10.092;2023-01-15T02:06:05;0.20;;;0.20;;
12956;SDS011;6543;48.836;10.092;2023-01-15T02:08:34;0.40;;;0.10;;
12956;SDS011;6543;48.836;10.092;2023-01-15T02:11:05;0.33;;;0.23;;
12956;SDS011;6543;48.836;10.092;2023-01-15T02:13:35;1.33;;;0.13;;
12956;SDS011;6543;48.836;10.092;2023-01-15T02:16:06;0.47;;;0.30;;
12956;SDS011;6543;48.836;10.092;2023-01-15T02:18:39;0.30;;;0.30;;
12956;SDS011;6543;48.836;10.092;2023-01-15T02:21:11;0.43;;;0.40;;
12956;SDS011;6543;48.836;10.092;2023-01-15T02:23:49;0.27;;;0.27;;
12956;SDS011;6543;48.836;10.092;2023-01-15T02:26:49;0.50;;;0.30;;
12956;SDS011;6543;48.836;10.092;2023-01-15T02:29:30;1.80;;;0.30;;
12956;SDS011;6543;48.836;10.092;2023-01-15T02:32:07;0.40;;;0.30;;
12956;SDS011;6543;48.836;10.092;2023-01-15T02:34:36;0.17;;;0.17;;
12956;SDS011;6543;48.836;10.092;2023-01-15T02:37:11;0.20;;;0.20;;
12956;SDS011;6543;48.836;10.092;2023-01-15T02:39:41;1.37;;;0.30;;
12956;SDS011;6543;48.836;10.092;2023-01-15T02:42:11;0.40;;;0.20;;
12956;SDS011;6543;48.836;10.092;2023-01-15T02:44:40;0.40;;;0.20;;
12956;SDS011;6543;48.836;10.092;2023-01-15T02:47:12;0.20;;;0.20;;
12956;SDS011;6543;48.836;10.092;2023-01-15T02:49:41;0.60;;;0.10;;
12956;SDS011;6543;48.836;10.092;2023-01-15T02:52:12;0.87;;;0.30;;
12956;SDS011;6543;48.836;10.092;2023-01-15T02:54:42;0.30;;;0.30;;
12956;SDS011;6543;48.836;10.092;2023-01-15T02:57:14;1.60;;;0.23;;
12956;SDS011;6543;48.836;10.092;2023-01-15T02:59:45;0.20;;;0.20;;
12956;SDS011;6543;48.836;10.092;2023-01-15T03:02:15;0.30;;;0.20;;
12956;SDS011;6543;48.836;10.092;2023-01-15T03:04:46;0.20;;;0.20;;
12956;SDS011;6543;48.836;10.092;2023-01-15T03:07:18;0.30;;;0.20;;
12956;SDS011;6543;48.836;10.092;2023-01-15T03:09:50;0.20;;;0.20;;
12956;SDS011;6543;48.836;10.092;2023-01-15T03:12:21;0.23;;;0.10;;
12956;SDS011;6543;48.836;10.092;2023-01-15T03:14:55;0.40;;;0.13;;
12956;SDS011;6543;48.836;10.092;2023-01-15T03:17:32;0.40;;;0.20;;
12956;SDS011;6543;48.836;10.092;2023-01-15T03:20:02;0.37;;;0.20;;
12956;SDS011;6543;48.836;10.092;2023-01-15T03:22:35;0.17;;;0.17;;
12956;SDS011;6543;48.836;10.092;2023-01-15T03:25:06;0.00;;;0.00;;
12956;SDS011;6543;48.836;10.092;2023-01-15T03:27:38;0.00;;;0.00;;
12956;SDS011;6543;48.836;10.092;2023-01-15T03:30:06;0.50;;;0.20;;
12956;SDS011;6543;48.836;10.092;2023-01-15T03:32:36;0.60;;;0.20;;
12956;SDS011;6543;48.836;10.092;2023-01-15T03:35:04;0.13;;;0.10;;
12956;SDS011;6543;48.836;10.092;2023-01-15T03:37:35;1.13;;;0.10;;
12956;SDS011;6543;48.836;10.092;2023-01-15T03:40:02;0.20;;;0.20;;
12956;SDS011;6543;48.836;10.092;2023-01-15T03:42:36;0.27;;;0.20;;
12956;SDS011;6543;48.836;10.092;2023-01-15T03:45:13;0.10;;;0.07;;
12956;SDS011;6543;48.836;10.092;2023-01-15T03:47:47;0.10;;;0.10;;
12956;SDS011;6543;48.836;10.092;2023-01-15T03:50:24;0.30;;;0.10;;
12956;SDS011;6543;48.836;10.092;2023-01-15T03:52:57;0.53;;;0.10;;
12956;SDS011;6543;48.836;10.092;2023-01-15T03:55:34;0.10;;;0.10;;
12956;SDS011;6543;48.836;10.092;2023-01-15T03:58:10;0.10;;;0.10;;
12956;SDS011;6543;48.836;10.092;2023-01-15T04:00:43;1.20;;;0.30;;
12956;SDS011;6543;48.836;10.092;2023-01-15T04:03:14;0.10;;;0.10;;
12956;SDS011;6543;48.836;10.092;2023-01-15T04:05:43;0.20;;;0.10;;
12956;SDS011;6543;48.836;10.092;2023-01-15T04:08:10;0.57;;;0.10;;
12956;SDS011;6543;48.836;10.092;2023-01-15T04:10:48;0.23;;;0.17;;
12956;SDS011;6543;48.836;10.092;2023-01-15T04:13:21;0.40;;;0.40;;
12956;SDS011;6543;48.836;10.092;2023-01-15T04:15:49;1.03;;;0.47;;
12956;SDS011;6543;48.836;10.092;2023-01-15T04:18:16;1.83;;;0.33;;
12956;SDS011;6543;48.836;10.092;2023-01-15T04:20:43;0.40;;;0.20;;
12956;SDS011;6543;48.836;10.092;2023-01-15T04:23:11;0.43;;;0.23;;
12956;SDS011;6543;48.836;10.092;2023-01-15T04:25:38;0.83;;;0.30;;
12956;SDS011;6543;48.836;10.092;2023-01-15T04:28:05;2.30;;;0.30;;
12956;SDS011;6543;48.836;10.092;2023-01-15T04:30:34;2.10;;;0.20;;
12956;SDS011;6543;48.836;10.092;2023-01-15T04:33:01;0.50;;;0.10;;
12956;SDS011;6543;48.836;10.092;2023-01-15T04:35:29;0.40;;;0.20;;
12956;SDS011;6543;48.836;10.092;2023-01-15T04:37:56;0.57;;;0.27;;
12956;SDS011;6543;48.836;10.092;2023-01-15T04:40:23;0.10;;;0.10;;
12956;SDS011;6543;48.836;10.092;2023-01-15T04:43:08;0.13;;;0.10;;
12956;SDS011;6543;48.836;10.092;2023-01-15T04:45:54;1.60;;;0.23;;
12956;SDS011;6543;48.836;10.092;2023-01-15T04:48:21;1.53;;;0.20;;
12956;SDS011;6543;48.836;10.092;2023-01-15T04:50:48;1.23;;;0.30;;
12956;SDS011;6543;48.836;10.092;2023-01-15T04:53:15;0.10;;;0.10;;
12956;SDS011;6543;48.836;10.092;2023-01-15T04:55:42;0.20;;;0.20;;
12956;SDS011;6543;48.836;10.092;2023-01-15T04:58:09;0.37;;;0.33;;
12956;SDS011;6543;48.836;10.092;2023-01-15T05:00:36;0.10;;;0.10;;
12956;SDS011;6543;48.836;10.092;2023-01-15T05:03:04;1.70;;;0.30;;
12956;SDS011;6543;48.836;10.092;2023-01-15T05:05:31;0.10;;;0.10;;
12956;SDS011;6543;48.836;10.092;2023-01-15T05:07:58;0.27;;;0.20;;
12956;SDS011;6543;48.836;10.092;2023-01-15T05:10:25;0.00;;;0.00;;
12956;SDS011;6543;48.836;10.092;2023-01-15T05:12:52;0.47;;;0.20;;
12956;SDS011;6543;48.836;10.092;2023-01-15T05:15:18;0.93;;;0.20;;
12956;SDS011;6543;48.836;10.092;2023-01-15T05:17:45;0.63;;;0.20;;
12956;SDS011;6543;48.836;10.092;2023-01-15T05:22:42;0.10;;;0.10;;
12956;SDS011;6543;48.836;10.092;2023-01-15T05:25:08;0.10;;;0.00;;
12956;SDS011;6543;48.836;10.092;2023-01-15T05:27:35;1.10;;;0.10;;
12956;SDS011;6543;48.836;10.092;2023-01-15T05:30:02;0.30;;;0.20;;
12956;SDS011;6543;48.836;10.092;2023-01-15T05:32:30;0.23;;;0.13;;
12956;SDS011;6543;48.836;10.092;2023-01-15T05:34:57;0.43;;;0.30;;
12956;SDS011;6543;48.836;10.092;2023-01-15T05:37:25;0.10;;;0.10;;
12956;SDS011;6543;48.836;10.092;2023-01-15T05:39:54;0.60;;;0.10;;
12956;SDS011;6543;48.836;10.092;2023-01-15T05:42:21;0.20;;;0.20;;
12956;SDS011;6543;48.836;10.092;2023-01-15T05:44:48;0.10;;;0.10;;
12956;SDS011;6543;48.836;10.092;2023-01-15T05:47:14;0.00;;;0.00;;
12956;SDS011;6543;48.836;10.092;2023-01-15T05:49:41;0.33;;;0.00;;
12956;SDS011;6543;48.836;10.092;2023-01-15T05:52:08;0.10;;;0.00;;
12956;SDS011;6543;48.836;10.092;2023-01-15T05:54:37;0.00;;;0.00;;
12956;SDS011;6543;48.836;10.092;2023-01-15T05:57:03;0.30;;;0.00;;
12956;SDS011;6543;48.836;10.092;2023-01-15T05:59:31;0.10;;;0.10;;
12956;SDS011;6543;48.836;10.092;2023-01-15T06:01:58;0.10;;;0.10;;
12956;SDS011;6543;48.836;10.092;2023-01-15T06:04:25;0.57;;;0.20;;
12956;SDS011;6543;48.836;10.092;2023-01-15T06:06:53;0.63;;;0.10;;
12956;SDS011;6543;48.836;10.092;2023-01-15T06:09:21;0.03;;;0.03;;
12956;SDS011;6543;48.836;10.092;2023-01-15T06:11:49;0.10;;;0.10;;
12956;SDS011;6543;48.836;10.092;2023-01-15T06:14:18;0.10;;;0.00;;
12956;SDS011;6543;48.836;10.092;2023-01-15T06:16:46;0.10;;;0.00;;
12956;SDS011;6543;48.836;10.092;2023-01-15T06:19:13;0.00;;;0.00;;
12956;SDS011;6543;48.836;10.092;2023-01-15T06:21:40;0.10;;;0.00;;
12956;SDS011;6543;48.836;10.092;2023-01-15T06:24:08;0.10;;;0.10;;
12956;SDS011;6543;48.836;10.092;2023-01-15T06:26:36;0.03;;;0.03;;
12956;SDS011;6543;48.836;10.092;2023-01-15T06:29:05;0.50;;;0.00;;
12956;SDS011;6543;48.836;10.092;2023-01-15T06:31:31;0.27;;;0.20;;
12956;SDS011;6543;48.836;10.092;2023-01-15T06:33:58;0.00;;;0.00;;
12956;SDS011;6543;48.836;10.092;2023-01-15T06:36:25;0.10;;;0.10;;
12956;SDS011;6543;48.836;10.092;2023-01-15T06:38:53;1.13;;;0.20;;
12956;SDS011;6543;48.836;10.092;2023-01-15T06:41:21;0.00;;;0.00;;
12956;SDS011;6543;48.836;10.092;2023-01-15T06:44:09;0.00;;;0.00;;
12956;SDS011;6543;48.836;10.092;2023-01-15T06:47:10;0.13;;;0.13;;
12956;SDS011;6543;48.836;10.092;2023-01-15T06:49:49;0.00;;;0.00;;
12956;SDS011;6543;48.836;10.092;2023-01-15T06:52:17;0.10;;;0.10;;
12956;SDS011;6543;48.836;10.092;2023-01-15T06:54:44;1.47;;;0.10;;
12956;SDS011;6543;48.836;10.092;2023-01-15T06:57:10;0.00;;;0.00;;
12956;SDS011;6543;48.836;10.092;2023-01-15T06:59:39;0.00;;;0.00;;
12956;SDS011;6543;48.836;10.092;2023-01-15T07:02:06;0.43;;;0.10;;
12956;SDS011;6543;48.836;10.092;2023-01-15T07:04:33;0.00;;;0.00;;
12956;SDS011;6543;48.836;10.092;2023-01-15T07:06:59;0.10;;;0.10;;
12956;SDS011;6543;48.836;10.092;2023-01-15T07:09:26;0.30;;;0.10;;
12956;SDS011;6543;48.836;10.092;2023-01-15T07:11:53;0.30;;;0.10;;
12956;SDS011;6543;48.836;10.092;2023-01-15T07:14:21;0.00;;;0.00;;
12956;SDS011;6543;48.836;10.092;2023-01-15T07:16:50;0.30;;;0.10;;
12956;SDS011;6543;48.836;10.092;2023-01-15T07:19:18;1.17;;;0.20;;
12956;SDS011;6543;48.836;10.092;2023-01-15T07:21:45;0.10;;;0.07;;
12956;SDS011;6543;48.836;10.092;2023-01-15T07:24:13;0.00;;;0.00;;
12956;SDS011;6543;48.836;10.092;2023-01-15T07:26:40;0.33;;;0.20;;
12956;SDS011;6543;48.836;10.092;2023-01-15T07:29:09;0.00;;;0.00;;
12956;SDS011;6543;48.836;10.092;2023-01-15T07:31:36;3.53;;;0.47;;
12956;SDS011;6543;48.836;10.092;2023-01-15T07:34:06;0.33;;;0.33;;
12956;SDS011;6543;48.836;10.092;2023-01-15T07:36:33;0.67;;;0.67;;
12956;SDS011;6543;48.836;10.092;2023-01-15T07:39:02;0.37;;;0.33;;
12956;SDS011;6543;48.836;10.092;2023-01-15T07:41:29;0.30;;;0.30;;
12956;SDS011;6543;48.836;10.092;2023-01-15T07:44:14;0.20;;;0.20;;
12956;SDS011;6543;48.836;10.092;2023-01-15T07:46:58;0.10;;;0.10;;
12956;SDS011;6543;48.836;10.092;2023-01-15T07:49:43;0.20;;;0.20;;
12956;SDS011;6543;48.836;10.092;2023-01-15T07:52:11;0.10;;;0.10;;
12956;SDS011;6543;48.836;10.092;2023-01-15T07:54:38;0.13;;;0.13;;
12956;SDS011;6543;48.836;10.092;2023-01-15T07:57:05;0.30;;;0.30;;
12956;SDS011;6543;48.836;10.092;2023-01-15T07:59:32;0.17;;;0.17;;
12956;SDS011;6543;48.836;10.092;2023-01-15T08:01:59;0.40;;;0.30;;
12956;SDS011;6543;48.836;10.092;2023-01-15T08:04:26;0.90;;;0.50;;
12956;SDS011;6543;48.836;10.092;2023-01-15T08:06:54;0.20;;;0.20;;
12956;SDS011;6543;48.836;10.092;2023-01-15T08:09:21;0.40;;;0.40;;
12956;SDS011;6543;48.836;10.092;2023-01-15T08:11:49;2.17;;;0.97;;
12956;SDS011;6543;48.836;10.092;2023-01-15T08:14:34;2.97;;;0.57;;
12956;SDS011;6543;48.836;10.092;2023-01-15T08:17:18;0.77;;;0.20;;
12956;SDS011;6543;48.836;10.092;2023-01-15T08:19:45;0.00;;;0.00;;
12956;SDS011;6543;48.836;10.092;2023-01-15T08:22:13;0.63;;;0.40;;
12956;SDS011;6543;48.836;10.092;2023-01-15T08:24:40;0.20;;;0.20;;
12956;SDS011;6543;48.836;10.092;2023-01-15T08:27:07;0.00;;;0.00;;
12956;SDS011;6543;48.836;10.092;2023-01-15T08:29:33;0.00;;;0.00;;
12956;SDS011;6543;48.836;10.092;2023-01-15T08:32:00;0.10;;;0.10;;
12956;SDS011;6543;48.836;10.092;2023-01-15T08:34:27;0.10;;;0.10;;
12956;SDS011;6543;48.836;10.092;2023-01-15T08:36:54;0.30;;;0.07;;
12956;SDS011;6543;48.836;10.092;2023-01-15T08:39:25;0.00;;;0.00;;
12956;SDS011;6543;48.836;10.092;2023-01-15T08:41:52;0.30;;;0.10;;
12956;SDS011;6543;48.836;10.092;2023-01-15T08:44:19;0.30;;;0.30;;
12956;SDS011;6543;48.836;10.092;2023-01-15T08:46:47;0.73;;;0.20;;
12956;SDS011;6543;48.836;10.092;2023-01-15T08:49:14;0.63;;;0.40;;
12956;SDS011;6543;48.836;10.092;2023-01-15T08:51:42;0.40;;;0.40;;
12956;SDS011;6543;48.836;10.092;2023-01-15T08:54:11;2.37;;;0.70;;
12956;SDS011;6543;48.836;10.092;2023-01-15T08:56:39;0.10;;;0.10;;
12956;SDS011;6543;48.836;10.092;2023-01-15T08:59:06;0.20;;;0.20;;
12956;SDS011;6543;48.836;10.092;2023-01-15T09:01:33;3.20;;;0.47;;
12956;SDS011;6543;48.836;10.092;2023-01-15T09:04:00;0.30;;;0.30;;
12956;SDS011;6543;48.836;10.092;2023-01-15T09:06:28;1.43;;;0.40;;
12956;SDS011;6543;48.836;10.092;2023-01-15T09:08:55;0.37;;;0.30;;
12956;SDS011;6543;48.836;10.092;2023-01-15T09:11:21;0.30;;;0.20;;
12956;SDS011;6543;48.836;10.092;2023-01-15T09:13:50;0.33;;;0.03;;
12956;SDS011;6543;48.836;10.092;2023-01-15T09:16:18;1.07;;;0.30;;
12956;SDS011;6543;48.836;10.092;2023-01-15T09:18:44;0.27;;;0.27;;
12956;SDS011;6543;48.836;10.092;2023-01-15T09:21:11;0.10;;;0.10;;
12956;SDS011;6543;48.836;10.092;2023-01-15T09:23:38;0.33;;;0.33;;
12956;SDS011;6543;48.836;10.092;2023-01-15T09:26:05;0.00;;;0.00;;
12956;SDS011;6543;48.836;10.092;2023-01-15T09:28:33;0.33;;;0.33;;
12956;SDS011;6543;48.836;10.092;2023-01-15T09:31:02;0.40;;;0.40;;
12956;SDS011;6543;48.836;10.092;2023-01-15T09:33:28;0.10;;;0.10;;
12956;SDS011;6543;48.836;10.092;2023-01-15T09:35:55;0.20;;;0.20;;
12956;SDS011;6543;48.836;10.092;2023-01-15T09:38:22;1.33;;;0.43;;
12956;SDS011;6543;48.836;10.092;2023-01-15T09:40:49;0.40;;;0.40;;
12956;SDS011;6543;48.836;10.092;2023-01-15T09:43:23;0.30;;;0.30;;
12956;SDS011;6543;48.836;10.092;2023-01-15T09:46:03;0.73;;;0.33;;
12956;SDS011;6543;48.836;10.092;2023-01-15T09:48:38;0.73;;;0.23;;
12956;SDS011;6543;48.836;10.092;2023-01-15T09:51:17;0.20;;;0.20;;
12956;SDS011;6543;48.836;10.092;2023-01-15T09:53:55;0.20;;;0.20;;
12956;SDS011;6543;48.836;10.092;2023-01-15T09:56:36;0.10;;;0.10;;
12956;SDS011;6543;48.836;10.092;2023-01-15T10:01:54;0.20;;;0.17;;
12956;SDS011;6543;48.836;10.092;2023-01-15T10:04:26;0.60;;;0.20;;
12956;SDS011;6543;48.836;10.092;2023-01-15T10:06:59;0.40;;;0.40;;
12956;SDS011;6543;48.836;10.092;2023-01-15T10:09:33;0.60;;;0.27;;
12956;SDS011;6543;48.836;10.092;2023-01-15T10:12:06;0.20;;;0.20;;
12956;SDS011;6543;48.836;10.092;2023-01-15T10:14:57;2.03;;;0.20;;
12956;SDS011;6543;48.836;10.092;2023-01-15T10:17:34;0.43;;;0.43;;
12956;SDS011;6543;48.836;10.092;2023-01-15T10:20:10;0.43;;;0.30;;
12956;SDS011;6543;48.836;10.092;2023-01-15T10:22:43;0.30;;;0.30;;
12956;SDS011;6543;48.836;10.092;2023-01-15T10:25:21;0.93;;;0.30;;
12956;SDS011;6543;48.836;10.092;2023-01-15T10:27:52;0.23;;;0.23;;
12956;SDS011;6543;48.836;10.092;2023-01-15T10:30:27;0.30;;;0.30;;
12956;SDS011;6543;48.836;10.092;2023-01-15T10:33:04;0.30;;;0.30;;
12956;SDS011;6543;48.836;10.092;2023-01-15T10:35:46;0.53;;;0.53;;
12956;SDS011;6543;48.836;10.092;2023-01-15T10:38:22;0.47;;;0.10;;
12956;SDS011;6543;48.836;10.092;2023-01-15T10:41:06;1.03;;;0.73;;
12956;SDS011;6543;48.836;10.092;2023-01-15T10:43:47;2.20;;;0.90;;
12956;SDS011;6543;48.836;10.092;2023-01-15T10:46:21;1.30;;;1.10;;
12956;SDS011;6543;48.836;10.092;2023-01-15T10:48:54;0.40;;;0.40;;
12956;SDS011;6543;48.836;10.092;2023-01-15T10:51:23;0.33;;;0.33;;
12956;SDS011;6543;48.836;10.092;2023-01-15T10:53:53;0.90;;;0.63;;
12956;SDS011;6543;48.836;10.092;2023-01-15T10:56:27;0.70;;;0.40;;
12956;SDS011;6543;48.836;10.092;2023-01-15T10:59:01;0.30;;;0.27;;
12956;SDS011;6543;48.836;10.092;2023-01-15T11:01:38;0.20;;;0.20;;
12956;SDS011;6543;48.836;10.092;2023-01-15T11:04:08;0.10;;;0.10;;
12956;SDS011;6543;48.836;10.092;2023-01-15T11:06:37;0.73;;;0.30;;
12956;SDS011;6543;48.836;10.092;2023-01-15T11:09:04;0.10;;;0.10;;
12956;SDS011;6543;48.836;10.092;2023-01-15T11:11:34;0.73;;;0.60;;
12956;SDS011;6543;48.836;10.092;2023-01-15T11:14:31;0.30;;;0.30;;
12956;SDS011;6543;48.836;10.092;2023-01-15T11:17:16;1.67;;;0.80;;
12956;SDS011;6543;48.836;10.092;2023-01-15T11:20:03;0.27;;;0.27;;
12956;SDS011;6543;48.836;10.092;2023-01-15T11:22:38;0.40;;;0.40;;
12956;SDS011;6543;48.836;10.092;2023-01-15T11:25:05;4.30;;;0.50;;
12956;SDS011;6543;48.836;10.092;2023-01-15T11:27:35;0.83;;;0.77;;
12956;SDS011;6543;48.836;10.092;2023-01-15T11:30:03;0.50;;;0.50;;
12956;SDS011;6543;48.836;10.092;2023-01-15T11:32:53;0.40;;;0.30;;
12956;SDS011;6543;48.836;10.092;2023-01-15T11:35:23;0.20;;;0.20;;
12956;SDS011;6543;48.836;10.092;2023-01-15T11:38:00;0.33;;;0.30;;
12956;SDS011;6543;48.836;10.092;2023-01-15T11:40:27;0.70;;;0.30;;
12956;SDS011;6543;48.836;10.092;2023-01-15T11:42:55;0.43;;;0.30;;
12956;SDS011;6543;48.836;10.092;2023-01-15T11:45:45;0.20;;;0.10;;
12956;SDS011;6543;48.836;10.092;2023-01-15T11:48:33;0.50;;;0.50;;
12956;SDS011;6543;48.836;10.092;2023-01-15T11:51:19;2.53;;;1.20;;
12956;SDS011;6543;48.836;10.092;2023-01-15T11:53:47;1.30;;;0.67;;
12956;SDS011;6543;48.836;10.092;2023-01-15T11:56:17;0.30;;;0.30;;
12956;SDS011;6543;48.836;10.092;2023-01-15T11:58:49;0.20;;;0.20;;
12956;SDS011;6543;48.836;10.092;2023-01-15T12:01:22;0.57;;;0.20;;
12956;SDS011;6543;48.836;10.092;2023-01-15T12:03:51;0.20;;;0.17;;
12956;SDS011;6543;48.836;10.092;2023-01-15T12:06:20;0.30;;;0.17;;
12956;SDS011;6543;48.836;10.092;2023-01-15T12:08:48;1.53;;;0.50;;
12956;SDS011;6543;48.836;10.092;2023-01-15T12:11:23;0.40;;;0.40;;
12956;SDS011;6543;48.836;10.092;2023-01-15T12:14:06;0.40;;;0.30;;
12956;SDS011;6543;48.836;10.092;2023-01-15T12:16:54;0.47;;;0.30;;
12956;SDS011;6543;48.836;10.092;2023-01-15T12:19:28;0.80;;;0.30;;
12956;SDS011;6543;48.836;10.092;2023-01-15T12:22:12;0.50;;;0.40;;
12956;SDS011;6543;48.836;10.092;2023-01-15T12:25:02;0.83;;;0.50;;
12956;SDS011;6543;48.836;10.092;2023-01-15T12:27:47;1.83;;;1.13;;
12956;SDS011;6543;48.836;10.092;2023-01-15T12:30:26;0.53;;;0.30;;
12956;SDS011;6543;48.836;10.092;2023-01-15T12:32:59;0.40;;;0.40;;
12956;SDS011;6543;48.836;10.092;2023-01-15T12:35:42;0.13;;;0.13;;
12956;SDS011;6543;48.836;10.092;2023-01-15T12:38:17;0.37;;;0.37;;
12956;SDS011;6543;48.836;10.092;2023-01-15T12:40:50;0.37;;;0.37;;
12956;SDS011;6543;48.836;10.092;2023-01-15T12:43:22;1.07;;;0.57;;
12956;SDS011;6543;48.836;10.092;2023-01-15T12:46:09;0.30;;;0.30;;
12956;SDS011;6543;48.836;10.092;2023-01-15T12:48:42;1.20;;;0.30;;
12956;SDS011;6543;48.836;10.092;2023-01-15T12:51:16;5.07;;;1.93;;
12956;SDS011;6543;48.836;10.092;2023-01-15T12:53:52;0.50;;;0.50;;
12956;SDS011;6543;48.836;10.092;2023-01-15T12:56:26;0.20;;;0.20;;
12956;SDS011;6543;48.836;10.092;2023-01-15T12:58:57;0.97;;;0.60;;
12956;SDS011;6543;48.836;10.092;2023-01-15T13:01:33;0.83;;;0.50;;
12956;SDS011;6543;48.836;10.092;2023-01-15T13:04:10;5.87;;;1.63;;
12956;SDS011;6543;48.836;10.092;2023-01-15T13:06:43;0.87;;;0.57;;
12956;SDS011;6543;48.836;10.092;2023-01-15T13:09:19;0.57;;;0.47;;
12956;SDS011;6543;48.836;10.092;2023-01-15T13:11:54;0.20;;;0.20;;
12956;SDS011;6543;48.836;10.092;2023-01-15T13:14:22;0.40;;;0.40;;
12956;SDS011;6543;48.836;10.092;2023-01-15T13:16:51;0.87;;;0.30;;
12956;SDS011;6543;48.836;10.092;2023-01-15T13:19:29;0.10;;;0.10;;
12956;SDS011;6543;48.836;10.092;2023-01-15T13:22:03;0.30;;;0.30;;
12956;SDS011;6543;48.836;10.092;2023-01-15T13:24:45;0.40;;;0.40;;
12956;SDS011;6543;48.836;10.092;2023-01-15T13:27:38;1.50;;;0.40;;
12956;SDS011;6543;48.836;10.092;2023-01-15T13:30:25;0.40;;;0.40;;
12956;SDS011;6543;48.836;10.092;2023-01-15T13:33:12;0.30;;;0.20;;
12956;SDS011;6543;48.836;10.092;2023-01-15T13:35:48;0.57;;;0.57;;
12956;SDS011;6543;48.836;10.092;2023-01-15T13:38:18;0.53;;;0.50;;
12956;SDS011;6543;48.836;10.092;2023-01-15T13:40:49;0.70;;;0.40;;
12956;SDS011;6543;48.836;10.092;2023-01-15T13:43:25;0.40;;;0.40;;
12956;SDS011;6543;48.836;10.092;2023-01-15T13:45:57;0.63;;;0.37;;
12956;SDS011;6543;48.836;10.092;2023-01-15T13:48:27;0.83;;;0.50;;
12956;SDS011;6543;48.836;10.092;2023-01-15T13:50:57;0.30;;;0.30;;
12956;SDS011;6543;48.836;10.092;2023-01-15T13:53:26;0.23;;;0.17;;
12956;SDS011;6543;48.836;10.092;2023-01-15T13:55:58;0.20;;;0.20;;
12956;SDS011;6543;48.836;10.092;2023-01-15T13:58:30;0.30;;;0.30;;
12956;SDS011;6543;48.836;10.092;2023-01-15T14:01:05;0.50;;;0.20;;
12956;SDS011;6543;48.836;10.092;2023-01-15T14:03:52;0.63;;;0.30;;
12956;SDS011;6543;48.836;10.092;2023-01-15T14:06:33;0.80;;;0.50;;
12956;SDS011;6543;48.836;10.092;2023-01-15T14:09:02;0.40;;;0.30;;
12956;SDS011;6543;48.836;10.092;2023-01-15T14:11:35;0.30;;;0.23;;
12956;SDS011;6543;48.836;10.092;2023-01-15T14:14:19;0.77;;;0.40;;
12956;SDS011;6543;48.836;10.092;2023-01-15T14:17:30;0.83;;;0.63;;
12956;SDS011;6543;48.836;10.092;2023-01-15T14:20:35;1.67;;;0.53;;
12956;SDS011;6543;48.836;10.092;2023-01-15T14:23:28;1.13;;;0.40;;
12956;SDS011;6543;48.836;10.092;2023-01-15T14:26:07;0.67;;;0.50;;
12956;SDS011;6543;48.836;10.092;2023-01-15T14:28:47;1.60;;;0.30;;
12956;SDS011;6543;48.836;10.092;2023-01-15T14:31:28;0.20;;;0.20;;
12956;SDS011;6543;48.836;10.092;2023-01-15T14:34:16;1.43;;;0.30;;
12956;SDS011;6543;48.836;10.092;2023-01-15T14:36:48;1.07;;;0.30;;
12956;SDS011;6543;48.836;10.092;2023-01-15T14:39:21;2.10;;;0.30;;
12956;SDS011;6543;48.836;10.092;2023-01-15T14:41:56;3.60;;;0.50;;
12956;SDS011;6543;48.836;10.092;2023-01-15T14:44:54;1.27;;;0.30;;
12956;SDS011;6543;48.836;10.092;2023-01-15T14:47:25;0.23;;;0.23;;
12956;SDS011;6543;48.836;10.092;2023-01-15T14:50:01;1.03;;;0.53;;
12956;SDS011;6543;48.836;10.092;2023-01-15T14:52:48;0.27;;;0.20;;
12956;SDS011;6543;48.836;10.092;2023-01-15T14:55:16;2.23;;;0.20;;
12956;SDS011;6543;48.836;10.092;2023-01-15T14:57:45;0.97;;;0.40;;
12956;SDS011;6543;48.836;10.092;2023-01-15T15:00:20;1.27;;;0.57;;
12956;SDS011;6543;48.836;10.092;2023-01-15T15:02:50;1.10;;;0.57;;
12956;SDS011;6543;48.836;10.092;2023-01-15T15:05:18;2.50;;;0.40;;
12956;SDS011;6543;48.836;10.092;2023-01-15T15:07:48;2.90;;;0.50;;
12956;SDS011;6543;48.836;10.092;2023-01-15T15:10:20;1.03;;;0.53;;
12956;SDS011;6543;48.836;10.092;2023-01-15T15:12:52;2.47;;;0.80;;
12956;SDS011;6543;48.836;10.092;2023-01-15T15:15:30;4.87;;;0.70;;
12956;SDS011;6543;48.836;10.092;2023-01-15T15:18:05;1.83;;;0.70;;
12956;SDS011;6543;48.836;10.092;2023-01-15T15:20:42;0.40;;;0.30;;
12956;SDS011;6543;48.836;10.092;2023-01-15T15:23:14;3.80;;;1.43;;